Time;durP1;ratioP1;P1;durP2;ratioP2;P2;SDS_P1;SDS_P2;PMS_P1;PMS_P2;Temp;Humidity;BMP_temperature;BMP_pressure;BME280_temperature;BME280_humidity;BME280_pressure;Samples;Min_cycle;Max_cycle;Signal;HPM_P1;HPM_P2
2021/12/11 00:00:52;;;;;;;81.63;35.93;;;;;;;-5.09;100.00;100310.56;10316461;28;20030;-90
2021/12/11 00:05:59;;;;;;;85.83;37.83;;;;;;;-7.34;100.00;99963.09;10286564;28;20049;-90
2021/12/11 00:11:22;;;;;;;87.13;37.13;;;;;;;-8.01;100.00;99798.13;10271393;28;20069;-91
2021/12/11 00:16:22;;;;;;;80.50;35.93;;;;;;;-3.75;100.00;100527.06;10285165;28;20042;-91
2021/12/11 00:21:24;;;;;;;87.47;37.47;;;;;;;-4.64;100.00;100353.25;10286437;28;20493;-91
2021/12/11 00:26:32;;;;;;;78.10;33.73;;;;;;;-7.00;100.00;100008.53;10307329;28;20137;-91
2021/12/11 00:31:35;;;;;;;88.07;35.57;;;;;;;-6.06;100.00;100306.66;10322199;28;20060;-90
2021/12/11 00:36:36;;;;;;;82.90;35.60;;;;;;;-5.19;100.00;100335.91;10299539;28;20129;-82
2021/12/11 00:41:36;;;;;;;83.97;36.43;;;;;;;-4.16;100.00;100558.50;10298881;28;20141;-81
2021/12/11 00:46:37;;;;;;;78.57;37.07;;;;;;;-5.43;100.00;100344.75;10309322;28;20382;-82
2021/12/11 00:51:37;;;;;;;82.33;34.80;;;;;;;-4.88;100.00;100467.66;10323055;28;20037;-82
2021/12/11 00:56:38;;;;;;;78.37;34.47;;;;;;;-4.77;100.00;100448.56;10323210;28;20037;-82
2021/12/11 01:01:48;;;;;;;82.57;36.50;;;;;;;-3.85;100.00;100624.06;10308551;28;20038;-82
2021/12/11 01:06:51;;;;;;;74.17;35.53;;;;;;;-3.85;100.00;100626.75;10289763;28;20108;-82
2021/12/11 01:11:58;;;;;;;70.33;32.73;;;;;;;-5.54;100.00;100403.06;10289831;28;20544;-82
2021/12/11 01:17:30;;;;;;;79.00;33.57;;;;;;;-4.79;100.00;100503.47;10280770;28;20045;-90
2021/12/11 01:22:34;;;;;;;76.27;33.10;;;;;;;-5.43;100.00;100495.81;10319665;28;20034;-90
2021/12/11 01:27:35;;;;;;;73.13;33.17;;;;;;;-4.22;100.00;100691.69;10331665;28;20168;-90
2021/12/11 01:32:35;;;;;;;79.43;35.17;;;;;;;-4.91;100.00;100551.25;10314906;28;20129;-90
2021/12/11 01:37:36;;;;;;;81.73;33.13;;;;;;;-5.30;100.00;100457.81;10315395;28;20065;-90
2021/12/11 01:42:38;;;;;;;77.00;32.60;;;;;;;-4.22;100.00;100661.28;10331258;28;20069;-90
2021/12/11 01:47:41;;;;;;;102.90;40.73;;;;;;;-4.08;100.00;100668.72;10314688;28;20473;-81
2021/12/11 01:52:53;;;;;;;84.20;35.73;;;;;;;-4.56;100.00;100563.63;10328761;28;20065;-81
2021/12/11 01:57:54;;;;;;;81.07;35.77;;;;;;;-4.26;100.00;100679.59;10328113;28;20037;-81
2021/12/11 02:02:56;;;;;;;90.80;36.00;;;;;;;-5.57;100.00;100666.22;10344013;28;20042;-81
2021/12/11 02:08:00;;;;;;;79.27;32.87;;;;;;;-7.43;100.00;100145.91;10328608;28;20057;-82
2021/12/11 02:13:04;;;;;;;78.77;32.07;;;;;;;-4.49;100.00;100622.91;10311444;28;20057;-82
2021/12/11 02:18:12;;;;;;;87.10;35.10;;;;;;;-5.96;100.00;100425.31;10344369;28;20085;-82
2021/12/11 02:23:13;;;;;;;78.77;32.13;;;;;;;-5.50;100.00;100479.53;10311534;28;20026;-81
2021/12/11 02:28:36;;;;;;;76.80;34.03;;;;;;;-5.13;100.00;100583.00;10343094;28;20062;-81
2021/12/11 02:33:46;;;;;;;72.87;32.17;;;;;;;-6.19;100.00;100386.66;10346745;28;20551;-90
2021/12/11 02:39:11;;;;;;;75.97;32.40;;;;;;;-3.97;100.00;100767.09;10329175;28;20124;-81
2021/12/11 02:44:17;;;;;;;80.53;32.07;;;;;;;-5.83;100.00;100493.72;10342157;28;20030;-81
2021/12/11 02:49:52;;;;;;;72.47;33.23;;;;;;;-4.16;100.00;100899.91;10310178;28;20065;-82
2021/12/11 02:54:59;;;;;;;76.73;34.20;;;;;;;-5.95;100.00;100499.38;10327542;28;20040;-81
2021/12/11 03:00:08;;;;;;;71.03;32.77;;;;;;;-4.81;100.00;100678.16;10310937;28;20030;-82
2021/12/11 03:05:11;;;;;;;78.83;33.33;;;;;;;-5.39;100.00;100604.50;10325384;28;20061;-81
2021/12/11 03:10:14;;;;;;;71.10;31.07;;;;;;;-5.62;100.00;100716.81;10310088;28;20153;-81
2021/12/11 03:15:17;;;;;;;72.50;31.57;;;;;;;-5.75;100.00;100612.59;10340863;28;20453;-81
2021/12/11 03:20:19;;;;;;;70.73;29.47;;;;;;;-8.34;100.00;100137.03;10308657;28;20583;-81
2021/12/11 03:25:23;;;;;;;74.37;30.20;;;;;;;-4.93;100.00;100739.34;10324273;28;20048;-82
2021/12/11 03:30:28;;;;;;;81.43;32.20;;;;;;;-5.63;100.00;100602.47;10325037;28;20050;-81
2021/12/11 03:35:28;;;;;;;79.67;32.47;;;;;;;-5.09;100.00;100713.22;10325848;28;20133;-88
2021/12/11 03:40:29;;;;;;;70.70;31.20;;;;;;;-7.60;100.00;100302.66;10326839;28;20133;-90
2021/12/11 03:45:31;;;;;;;84.07;32.87;;;;;;;-5.89;100.00;100632.75;10326320;28;20034;-90
2021/12/11 03:50:32;;;;;;;76.77;30.90;;;;;;;-4.56;100.00;100809.97;10309560;28;20040;-89
2021/12/11 03:55:36;;;;;;;69.80;31.17;;;;;;;-4.79;100.00;100783.59;10325704;28;20037;-90
2021/12/11 04:01:01;;;;;;;75.57;31.20;;;;;;;-5.92;100.00;100633.03;10325799;28;20069;-90
2021/12/11 04:06:04;;;;;;;71.25;30.50;;;;;;;-5.05;100.00;100826.50;10312077;28;20129;-82
2021/12/11 04:11:05;;;;;;;67.73;30.57;;;;;;;-4.77;100.00;100953.50;10268608;28;20042;-81
2021/12/11 04:16:06;;;;;;;71.37;31.40;;;;;;;-4.24;100.00;100899.84;10306296;28;20412;-82
2021/12/11 04:21:07;;;;;;;80.03;31.93;;;;;;;-4.36;100.00;100877.75;10316861;28;20081;-82
2021/12/11 04:26:07;;;;;;;69.60;30.10;;;;;;;-4.14;100.00;100930.19;10283786;28;20454;-90
2021/12/11 04:31:14;;;;;;;70.47;30.17;;;;;;;-6.27;100.00;100574.13;10285830;28;20049;-90
2021/12/11 04:36:19;;;;;;;71.40;32.00;;;;;;;-5.64;100.00;100686.63;10287055;28;20042;-90
2021/12/11 04:41:37;;;;;;;63.25;30.67;;;;;;;-8.58;100.00;100256.88;10293032;28;20125;-89
2021/12/11 04:46:37;;;;;;;69.07;30.33;;;;;;;-5.48;100.00;100729.69;10278182;28;20030;-90
2021/12/11 05:01:58;;;;;;;92.53;35.97;;;;;;;-6.59;100.00;100572.78;10368439;28;20038;-90
2021/12/11 05:07:21;;;;;;;76.13;33.30;;;;;;;-4.61;100.00;100906.28;10319653;28;20327;-90
2021/12/11 05:17:24;;;;;;;80.23;32.93;;;;;;;-4.89;100.00;100866.94;10307641;28;20140;-82
2021/12/11 05:22:25;;;;;;;72.57;31.77;;;;;;;-4.95;100.00;100928.47;10325220;28;20136;-82
2021/12/11 05:27:25;;;;;;;71.90;30.37;;;;;;;-5.52;100.00;100781.09;10353866;28;20085;-82
2021/12/11 05:32:26;;;;;;;79.03;30.47;;;;;;;-5.15;100.00;100885.63;10353913;28;20096;-82
2021/12/11 05:37:26;;;;;;;68.73;30.80;;;;;;;-8.30;100.00;100355.69;10370178;28;20042;-82
2021/12/11 05:42:27;;;;;;;74.87;31.77;;;;;;;-4.63;100.00;100924.41;10386839;28;20081;-90
2021/12/11 05:47:28;;;;;;;69.40;29.93;;;;;;;-5.27;100.00;100819.78;10387482;28;20362;-90
2021/12/11 05:52:28;;;;;;;63.67;28.87;;;;;;;-4.04;100.00;101151.44;10385073;28;20083;-82
2021/12/11 05:57:29;;;;;;;68.30;30.80;;;;;;;-4.70;100.00;100981.41;10314063;28;20073;-82
2021/12/11 06:02:29;;;;;;;72.50;29.70;;;;;;;-4.23;100.00;101039.50;10287387;28;20504;-82
2021/12/11 06:07:30;;;;;;;79.70;32.57;;;;;;;-5.14;100.00;100832.81;10273071;28;20493;-82
2021/12/11 06:12:30;;;;;;;78.00;31.77;;;;;;;-4.29;100.00;100995.25;10284087;28;20064;-81
2021/12/11 06:17:31;;;;;;;93.20;34.40;;;;;;;-7.94;100.00;100386.06;10311700;28;20042;-82
2021/12/11 06:22:33;;;;;;;79.30;35.03;;;;;;;-5.14;100.00;100833.63;10321266;28;20038;-89
2021/12/11 06:27:33;;;;;;;75.67;33.03;;;;;;;-4.77;100.00;100907.00;10330456;28;20469;-86
2021/12/11 06:32:34;;;;;;;77.93;32.17;;;;;;;-4.94;100.00;100865.69;10332751;28;20085;-87
2021/12/11 06:37:34;;;;;;;76.10;33.27;;;;;;;-4.56;100.00;100988.13;10302603;28;20066;-89
2021/12/11 06:42:35;;;;;;;73.60;32.93;;;;;;;-5.32;100.00;100851.56;10306024;28;20034;-89
2021/12/11 06:47:35;;;;;;;68.57;30.77;;;;;;;-5.25;100.00;100839.25;10325565;28;20132;-90
2021/12/11 06:52:36;;;;;;;72.57;31.20;;;;;;;-4.00;100.00;101117.84;10323875;28;20034;-82
2021/12/11 06:57:36;;;;;;;75.03;31.50;;;;;;;-4.59;100.00;100940.03;10341795;28;20108;-89
2021/12/11 07:02:37;;;;;;;70.83;30.00;;;;;;;-4.60;100.00;100991.28;10327246;28;20162;-89
2021/12/11 07:07:40;;;;;;;75.43;32.60;;;;;;;-4.06;100.00;101021.66;10312725;28;20057;-89
2021/12/11 07:12:41;;;;;;;82.40;34.17;;;;;;;-4.20;100.00;101012.28;10315288;28;20038;-88
2021/12/11 07:17:42;;;;;;;81.83;34.20;;;;;;;-6.26;100.00;100681.16;10269593;28;20137;-90
2021/12/11 07:22:42;;;;;;;85.30;35.27;;;;;;;-4.49;100.00;100961.47;10303350;28;20122;-89
2021/12/11 07:27:43;;;;;;;81.10;34.93;;;;;;;-4.80;100.00;100934.16;10358066;28;20467;-88
2021/12/11 07:32:44;;;;;;;80.03;33.07;;;;;;;-4.67;100.00;100943.53;10312641;28;20046;-81
2021/12/11 07:37:50;;;;;;;83.13;34.67;;;;;;;-3.79;100.00;101124.78;10283496;28;20106;-89
2021/12/11 07:42:50;;;;;;;80.57;35.37;;;;;;;-4.54;100.00;101002.25;10287020;28;20043;-86
2021/12/11 07:47:51;;;;;;;84.70;35.80;;;;;;;-4.43;100.00;101046.84;10283367;28;20533;-89
2021/12/11 07:52:52;;;;;;;83.77;34.97;;;;;;;-4.00;100.00;101139.38;10302325;28;20044;-88
2021/12/11 07:57:52;;;;;;;77.23;34.63;;;;;;;-3.97;100.00;101235.03;10308116;28;20049;-81
2021/12/11 08:02:53;;;;;;;81.10;35.87;;;;;;;-3.96;100.00;101161.44;10309759;28;20104;-81
2021/12/11 08:07:53;;;;;;;84.33;38.33;;;;;;;-3.81;100.00;101255.91;10265882;28;20600;-82
2021/12/11 08:12:54;;;;;;;93.87;38.03;;;;;;;-3.99;100.00;101162.59;10286507;28;20524;-81
2021/12/11 08:17:54;;;;;;;94.37;39.27;;;;;;;-4.28;100.00;101136.75;10291204;28;20038;-81
2021/12/11 08:22:55;;;;;;;94.07;39.33;;;;;;;-5.10;100.00;100958.50;10284273;28;20477;-89
2021/12/11 08:27:55;;;;;;;91.53;37.73;;;;;;;-3.54;100.00;101252.31;10330681;28;20416;-89
2021/12/11 08:32:56;;;;;;;106.20;38.83;;;;;;;-5.06;100.00;100964.44;10330672;28;20050;-88
2021/12/11 08:37:56;;;;;;;90.57;39.50;;;;;;;-4.52;100.00;101082.72;10290405;28;20077;-81
2021/12/11 08:42:57;;;;;;;101.90;41.80;;;;;;;-4.08;100.00;101156.25;10275050;28;20375;-89
2021/12/11 08:47:59;;;;;;;95.10;41.30;;;;;;;-3.35;100.00;101273.72;10290519;28;20100;-81
2021/12/11 08:52:59;;;;;;;100.67;41.47;;;;;;;-4.13;100.00;101146.97;10275182;28;20034;-81
2021/12/11 08:58:00;;;;;;;93.77;38.93;;;;;;;-3.85;100.00;101164.72;10304988;28;20133;-90
2021/12/11 09:03:03;;;;;;;103.93;42.80;;;;;;;-3.61;100.00;101268.25;10274790;28;20034;-89
2021/12/11 09:08:12;;;;;;;106.83;44.97;;;;;;;-2.73;100.00;101333.03;10290953;28;20034;-89
2021/12/11 09:13:19;;;;;;;119.50;48.27;;;;;;;-2.83;100.00;101291.84;10309765;28;20030;-88
2021/12/11 09:18:30;;;;;;;120.70;46.20;;;;;;;-2.88;100.00;101323.78;10315465;28;20061;-87
2021/12/11 09:23:37;;;;;;;121.57;48.10;;;;;;;-4.47;100.00;101045.47;10316124;28;20037;-89
2021/12/11 09:28:53;;;;;;;116.93;48.67;;;;;;;-3.19;100.00;101197.59;10322963;28;20053;-89
2021/12/11 09:33:55;;;;;;;;;;;;;;;-2.16;100.00;101372.19;10307223;28;20085;-89
2021/12/11 09:39:04;;;;;;;105.87;44.70;;;;;;;-2.72;100.00;101294.28;10336613;28;19913;-83
2021/12/11 09:44:23;;;;;;;118.73;49.97;;;;;;;-2.33;100.00;101387.44;10304600;28;20046;-89
2021/12/11 09:49:26;;;;;;;116.70;49.80;;;;;;;-2.40;100.00;101335.94;10290693;28;20041;-89
2021/12/11 09:54:26;;;;;;;109.77;44.63;;;;;;;-2.79;100.00;101233.09;10302126;28;20049;-89
2021/12/11 09:59:30;;;;;;;101.10;44.03;;;;;;;-2.03;100.00;101467.91;10304917;28;20140;-82
2021/12/11 10:04:58;;;;;;;97.77;44.43;;;;;;;-2.18;100.00;101282.50;10288030;28;20053;-83
2021/12/11 10:10:11;;;;;;;93.53;40.50;;;;;;;-6.24;100.00;100592.56;10282408;28;20057;-83
2021/12/11 10:15:25;;;;;;;88.50;40.00;;;;;;;-1.74;100.00;101339.00;10303908;28;20175;-90
2021/12/11 10:20:36;;;;;;;83.90;38.80;;;;;;;-5.75;100.00;100727.88;10287404;28;20104;-90
2021/12/11 10:25:38;;;;;;;73.80;33.57;;;;;;;-1.77;100.00;101290.78;10272975;28;20039;-88
2021/12/11 10:30:44;;;;;;;77.43;33.03;;;;;;;-2.96;100.00;101092.03;10285841;28;20050;-88
2021/12/11 10:35:47;;;;;;;82.47;35.35;;;;;;;-3.99;100.00;100888.28;10304396;28;20038;-82
2021/12/11 10:40:52;;;;;;;63.87;30.10;;;;;;;-1.63;100.00;101218.09;10271638;28;20431;-88
2021/12/11 10:45:52;;;;;;;67.77;30.40;;;;;;;-1.68;100.00;101182.63;10303920;28;20484;-83
2021/12/11 10:51:08;;;;;;;56.53;26.90;;;;;;;-0.94;100.00;101279.09;10279970;28;20057;-91
2021/12/11 10:56:09;;;;;;;55.15;27.17;;;;;;;-2.11;100.00;101073.09;10300218;28;20030;-90
2021/12/11 11:01:21;;;;;;;48.60;25.77;;;;;;;-2.50;100.00;101007.16;10326537;28;20037;-85
2021/12/11 11:06:21;;;;;;;41.23;21.90;;;;;;;-4.39;100.00;100790.22;10325527;28;20085;-87
2021/12/11 11:11:24;;;;;;;42.13;20.00;;;;;;;-4.85;100.00;100644.59;10326554;28;20058;-88
2021/12/11 11:16:24;;;;;;;33.87;19.00;;;;;;;-1.25;100.00;101214.91;10324799;28;20076;-89
2021/12/11 11:21:39;;;;;;;38.17;19.77;;;;;;;-3.02;100.00;100826.84;10309603;28;20065;-88
2021/12/11 11:26:43;;;;;;;40.27;18.53;;;;;;;-0.19;100.00;101372.69;10309619;28;20113;-88
2021/12/11 11:31:45;;;;;;;39.33;20.63;;;;;;;-0.53;100.00;101216.88;10270909;28;20049;-90
2021/12/11 11:36:46;;;;;;;36.53;19.70;;;;;;;-3.97;100.00;100730.28;10271511;28;20042;-90
2021/12/11 11:41:52;;;;;;;32.27;18.10;;;;;;;-0.64;100.00;101258.63;10285860;28;20045;-89
2021/12/11 11:46:54;;;;;;;40.83;18.67;;;;;;;-3.71;100.00;100775.09;10297603;28;20026;-87
2021/12/11 11:52:00;;;;;;;38.95;19.05;;;;;;;1.79;100.00;101624.75;10297283;28;20030;-88
2021/12/11 11:57:03;;;;;;;34.97;19.65;;;;;;;-1.59;100.00;101089.00;10270191;28;20068;-88
2021/12/11 12:02:07;;;;;;;38.40;19.40;;;;;;;0.16;100.00;101215.22;10300341;28;20035;-89
2021/12/11 12:07:08;;;;;;;33.83;19.23;;;;;;;-2.24;100.00;100988.13;10285243;28;20080;-93
2021/12/11 12:12:10;;;;;;;35.80;18.80;;;;;;;-4.16;100.00;100585.38;10284334;28;20038;-89
2021/12/11 12:17:19;;;;;;;35.03;20.03;;;;;;;-2.62;100.00;100697.69;10269990;28;20050;-91
2021/12/11 12:22:37;;;;;;;36.93;21.43;;;;;;;-2.70;100.00;100755.97;10348700;28;20385;-92
2021/12/11 12:27:52;;;;;;;37.20;20.60;;;;;;;-1.45;100.00;101042.41;10353110;28;20045;-91
2021/12/11 12:33:14;;;;;;;35.45;20.50;;;;;;;-1.56;100.00;100953.66;10349770;28;20091;-91
2021/12/11 12:38:49;;;;;;;36.55;20.60;;;;;;;-0.72;100.00;101172.13;10349477;28;20366;-92
2021/12/11 12:44:25;;;;;;;37.87;21.67;;;;;;;-1.87;100.00;100881.53;10353117;28;20072;-90
2021/12/11 12:49:45;;;;;;;43.83;23.50;;;;;;;-2.92;100.00;100832.09;10372557;28;20025;-92
2021/12/11 13:01:20;;;;;;;;;;;;;;;;;;;;;
2021/12/11 13:06:33;;;;;;;41.67;22.20;;;;;;;-0.27;100.00;101154.38;10390730;28;20497;-92
2021/12/11 13:11:51;;;;;;;;;;;;;;;;;;;;;
2021/12/11 13:17:19;;;;;;;;;;;;;;;;;;;;;
2021/12/11 13:22:56;;;;;;;38.05;19.02;;;;;;;1.48;100.00;101177.03;10400030;28;20496;-92
2021/12/11 13:28:19;;;;;;;29.70;16.48;;;;;;;2.68;100.00;101419.53;10362025;28;20416;-89
2021/12/11 13:33:23;;;;;;;26.60;17.97;;;;;;;0.81;100.00;101039.66;10356219;28;20045;-83
2021/12/11 13:38:25;;;;;;;32.33;17.75;;;;;;;0.83;100.00;101156.84;10357828;28;20045;-91
2021/12/11 13:43:26;;;;;;;37.10;18.88;;;;;;;0.37;100.00;101246.25;10355490;28;20026;-89
2021/12/11 13:48:26;;;;;;;33.30;19.30;;;;;;;1.85;100.00;101454.03;10289906;28;20114;-88
2021/12/11 13:53:27;;;;;;;39.58;18.80;;;;;;;0.24;100.00;101134.97;10289305;28;20034;-89
2021/12/11 13:58:28;;;;;;;34.67;19.13;;;;;;;0.57;100.00;101242.06;10296757;28;20094;-94
2021/12/11 14:03:29;;;;;;;46.38;20.95;;;;;;;1.02;100.00;101376.97;10275709;28;20125;-89
2021/12/11 14:08:31;;;;;;;39.43;20.93;;;;;;;-1.23;100.00;101229.09;10304077;28;20034;-88
2021/12/11 14:13:32;;;;;;;37.90;20.08;;;;;;;-0.47;100.00;101132.31;10287999;28;20117;-94
2021/12/11 14:18:33;;;;;;;41.22;21.98;;;;;;;-2.41;100.00;101047.63;10307518;28;20030;-93
2021/12/11 14:23:35;;;;;;;44.03;21.50;;;;;;;-1.29;100.00;101089.31;10271999;28;20062;-88
2021/12/11 14:28:36;;;;;;;46.17;22.77;;;;;;;-3.35;100.00;100949.78;10272688;28;20046;-94
2021/12/11 14:33:37;;;;;;;51.40;23.30;;;;;;;-1.48;100.00;101410.00;10299798;28;20040;-88
2021/12/11 14:38:37;;;;;;;48.57;24.00;;;;;;;-0.26;100.00;101356.28;10270492;28;20492;-87
2021/12/11 14:43:38;;;;;;;50.37;24.77;;;;;;;-3.74;100.00;100942.19;10289866;28;20126;-94
2021/12/11 14:48:39;;;;;;;55.90;26.70;;;;;;;-2.21;100.00;101245.03;10296912;28;20031;-88
2021/12/11 14:53:41;;;;;;;49.90;26.10;;;;;;;-0.91;100.00;101400.38;10269701;28;20019;-88
2021/12/11 14:58:46;;;;;;;57.63;27.63;;;;;;;-4.22;100.00;101021.53;10269599;28;20061;-87
2021/12/11 15:03:46;;;;;;;51.73;26.90;;;;;;;-3.10;100.00;101220.94;10302762;28;20104;-94
2021/12/11 15:08:47;;;;;;;59.50;27.87;;;;;;;-1.67;100.00;101373.31;10325219;28;20080;-86
2021/12/11 15:13:48;;;;;;;65.13;30.13;;;;;;;-3.76;100.00;100979.16;10324671;28;20030;-86
2021/12/11 15:18:49;;;;;;;65.07;30.00;;;;;;;-4.31;100.00;100999.09;10325738;28;20033;-92
2021/12/11 15:23:54;;;;;;;56.80;28.87;;;;;;;-4.38;100.00;100953.19;10299881;28;20041;-93
2021/12/11 15:28:55;;;;;;;43.10;21.80;;;;;;;-4.00;100.00;101010.28;10288690;28;20112;-92
2021/12/11 15:33:59;;;;;;;64.00;30.67;;;;;;;-1.65;100.00;101567.53;10293204;28;20312;-93
2021/12/11 15:39:04;;;;;;;68.10;34.87;;;;;;;-3.68;100.00;101305.69;10307734;28;20070;-87
2021/12/11 15:44:04;;;;;;;72.57;34.53;;;;;;;-3.32;100.00;101171.09;10299423;28;20437;-86
2021/12/11 15:49:05;;;;;;;77.47;36.83;;;;;;;-1.77;100.00;101502.16;10266891;28;20046;-86
2021/12/11 15:54:07;;;;;;;80.07;37.30;;;;;;;-3.70;100.00;101231.47;10266500;28;20449;-86
2021/12/11 15:59:08;;;;;;;75.47;39.50;;;;;;;-3.26;100.00;101240.47;10296938;28;20389;-86
2021/12/11 16:04:12;;;;;;;81.83;40.53;;;;;;;-1.44;100.00;101584.22;10292656;28;20049;-86
2021/12/11 16:09:16;;;;;;;91.53;41.37;;;;;;;-5.79;100.00;100882.03;10283012;28;20050;-86
2021/12/11 16:14:17;;;;;;;84.03;40.90;;;;;;;-3.81;100.00;101254.06;10282830;28;20026;-86
2021/12/11 16:19:18;;;;;;;79.90;38.67;;;;;;;-2.34;100.00;101575.34;10300101;28;20481;-92
2021/12/11 16:24:18;;;;;;;80.80;40.73;;;;;;;-3.80;100.00;101311.38;10272075;28;20041;-86
2021/12/11 16:29:19;;;;;;;90.57;43.33;;;;;;;-1.30;100.00;101671.09;10282275;28;20046;-86
2021/12/11 16:34:19;;;;;;;121.13;39.47;;;;;;;-3.80;100.00;101332.91;10302511;28;20039;-86
2021/12/11 16:39:22;;;;;;;137.77;45.70;;;;;;;-2.33;100.00;101609.41;10276903;28;20034;-93
2021/12/11 16:44:23;;;;;;;115.47;41.67;;;;;;;-4.50;100.00;101306.44;10293071;28;20038;-86
2021/12/11 16:49:26;;;;;;;114.67;42.27;;;;;;;-4.24;100.00;101200.94;10289608;28;20042;-85
2021/12/11 16:54:29;;;;;;;144.90;43.83;;;;;;;-5.61;100.00;100959.88;10290838;28;20045;-86
2021/12/11 16:59:30;;;;;;;110.43;37.53;;;;;;;-3.33;100.00;101340.88;10296457;28;20481;-92
2021/12/11 17:04:30;;;;;;;116.97;37.10;;;;;;;-3.78;100.00;101342.56;10332949;28;20045;-92
2021/12/11 17:09:35;;;;;;;90.17;37.83;;;;;;;-4.62;100.00;101245.81;10332930;28;20129;-93
2021/12/11 17:14:36;;;;;;;156.07;39.40;;;;;;;-2.75;100.00;101510.22;10334316;28;20026;-93
2021/12/11 17:19:37;;;;;;;127.90;37.50;;;;;;;-5.05;100.00;101161.25;10332247;28;20041;-92
2021/12/11 17:24:37;;;;;;;125.37;35.47;;;;;;;-1.80;100.00;101713.00;10333037;28;20362;-93
2021/12/11 17:29:38;;;;;;;92.20;31.67;;;;;;;-4.69;100.00;101187.28;10315411;28;20065;-93
2021/12/11 17:34:39;;;;;;;108.13;31.87;;;;;;;-3.80;100.00;101510.47;10331795;28;20429;-85
2021/12/11 17:39:39;;;;;;;186.07;35.30;;;;;;;-5.61;100.00;101244.22;10328200;28;20131;-85
2021/12/11 17:44:41;;;;;;;163.03;36.47;;;;;;;-2.48;100.00;101633.34;10323326;28;20117;-91
2021/12/11 17:49:41;;;;;;;92.00;28.93;;;;;;;-3.03;100.00;101675.56;10318076;28;20034;-92
2021/12/11 17:54:42;;;;;;;142.33;33.77;;;;;;;-4.72;100.00;101216.28;10317406;28;20363;-86
2021/12/11 17:59:42;;;;;;;98.23;32.00;;;;;;;-4.83;100.00;101375.78;10329619;28;20037;-92
2021/12/11 18:04:49;;;;;;;101.57;32.67;;;;;;;-2.94;100.00;101599.22;10331151;28;20045;-92
2021/12/11 18:09:50;;;;;;;;;;;;;;;-0.76;100.00;101857.53;10314172;28;20058;-86
2021/12/11 18:15:02;;;;;;;113.83;34.63;;;;;;;-5.18;100.00;101362.91;10343377;28;20370;-91
2021/12/11 18:20:09;;;;;;;190.73;37.57;;;;;;;-0.74;100.00;101864.50;10319492;28;20048;-92
2021/12/11 18:25:13;;;;;;;203.07;40.17;;;;;;;-5.17;100.00;101322.47;10330421;28;20037;-85
2021/12/11 18:30:21;;;;;;;159.60;37.87;;;;;;;-2.91;100.00;101631.28;10328213;28;20057;-91
2021/12/11 18:35:24;;;;;;;190.83;36.27;;;;;;;-2.20;100.00;101697.22;10311665;28;20068;-86
2021/12/11 18:40:37;;;;;;;156.47;36.33;;;;;;;-3.38;100.00;101561.25;10328976;28;20050;-89
2021/12/11 18:45:39;;;;;;;165.00;36.53;;;;;;;-2.07;100.00;101811.88;10312690;28;20030;-87
2021/12/11 18:50:42;;;;;;;119.13;34.40;;;;;;;-4.54;100.00;101434.03;10310304;28;20482;-88
2021/12/11 18:55:45;;;;;;;133.17;37.00;;;;;;;-3.99;100.00;101422.59;10311295;28;20061;-88
2021/12/11 19:01:07;;;;;;;160.73;37.33;;;;;;;-3.76;100.00;101448.19;10309677;28;20030;-87
2021/12/11 19:06:10;;;;;;;147.83;33.43;;;;;;;-2.59;100.00;101697.38;10325356;28;20486;-91
2021/12/11 19:11:19;;;;;;;143.70;34.73;;;;;;;-3.12;100.00;101597.31;10328987;28;20041;-92
2021/12/11 19:16:20;;;;;;;151.20;36.87;;;;;;;-4.53;100.00;101333.59;10313523;28;20037;-91
2021/12/11 19:21:23;;;;;;;122.07;33.23;;;;;;;-2.08;100.00;101758.06;10309757;28;20033;-92
2021/12/11 19:26:24;;;;;;;179.67;35.53;;;;;;;-4.59;100.00;101395.97;10311770;28;20045;-90
2021/12/11 19:31:32;;;;;;;104.83;33.23;;;;;;;-4.29;100.00;101602.78;10340995;28;20053;-87
2021/12/11 19:36:37;;;;;;;182.20;39.83;;;;;;;-2.11;100.00;101818.59;10324944;28;20034;-87
2021/12/11 19:41:38;;;;;;;76.47;30.43;;;;;;;-5.15;100.00;101239.97;10309528;28;20041;-92
2021/12/11 19:46:39;;;;;;;170.87;37.70;;;;;;;-4.35;100.00;101511.13;10309794;28;20064;-93
2021/12/11 19:51:41;;;;;;;145.70;34.10;;;;;;;-4.27;100.00;101447.56;10338952;28;20029;-93
2021/12/11 19:56:44;;;;;;;143.60;34.10;;;;;;;-3.67;100.00;101565.69;10323729;28;20030;-86
2021/12/11 20:01:46;;;;;;;99.10;33.07;;;;;;;-2.95;100.00;101616.41;10311906;28;20026;-91
2021/12/11 20:06:53;;;;;;;142.10;34.90;;;;;;;-2.57;100.00;101638.78;10310424;28;20049;-92
2021/12/11 20:11:57;;;;;;;134.17;34.37;;;;;;;-2.87;100.00;101627.28;10326657;28;20398;-92
2021/12/11 20:16:57;;;;;;;147.50;36.00;;;;;;;-2.66;100.00;101695.28;10309873;28;20037;-86
2021/12/11 20:22:08;;;;;;;139.60;35.90;;;;;;;-6.56;100.00;101017.03;10324636;28;20113;-91
2021/12/11 20:27:11;;;;;;;134.97;35.33;;;;;;;-3.55;100.00;101496.41;10311077;28;20034;-91
2021/12/11 20:32:15;;;;;;;108.40;34.37;;;;;;;-1.78;100.00;101909.91;10311229;28;20073;-92
2021/12/11 20:37:17;;;;;;;191.77;39.27;;;;;;;-2.05;100.00;101725.38;10311584;28;20046;-92
2021/12/11 20:42:19;;;;;;;160.40;39.27;;;;;;;-0.18;100.00;102034.75;10307401;28;20038;-92
2021/12/11 20:47:20;;;;;;;122.13;33.20;;;;;;;-1.63;100.00;101897.66;10308505;28;20118;-91
2021/12/11 20:52:20;;;;;;;147.77;38.60;;;;;;;-0.10;100.00;102132.28;10308033;28;20140;-91
2021/12/11 20:57:21;;;;;;;162.77;39.57;;;;;;;-3.88;100.00;101530.06;10325652;28;20034;-94
2021/12/11 21:02:23;;;;;;;193.93;41.77;;;;;;;-1.05;100.00;101848.66;10324104;28;20462;-86
2021/12/11 21:07:29;;;;;;;199.63;41.50;;;;;;;-2.84;100.00;101578.47;10325521;28;20088;-94
2021/12/11 21:12:42;;;;;;;209.67;40.70;;;;;;;-3.73;100.00;101473.94;10309377;28;20034;-93
2021/12/11 21:17:43;;;;;;;176.90;42.20;;;;;;;-1.99;100.00;101727.47;10309779;28;20386;-86
2021/12/11 21:22:45;;;;;;;166.40;42.60;;;;;;;-4.10;100.00;101402.97;10331902;28;20034;-93
2021/12/11 21:27:48;;;;;;;166.93;41.00;;;;;;;-0.82;100.00;101940.13;10315664;28;20041;-87
2021/12/11 21:32:50;;;;;;;240.33;47.33;;;;;;;0.21;100.00;102005.47;10328272;28;20095;-87
2021/12/11 21:37:51;;;;;;;208.67;47.23;;;;;;;-1.26;100.00;101856.19;10328780;28;20121;-88
2021/12/11 21:43:00;;;;;;;180.93;47.93;;;;;;;-1.94;100.00;101765.66;10331166;28;20034;-93
2021/12/11 21:48:13;;;;;;;189.30;46.17;;;;;;;-2.33;100.00;101689.47;10315095;28;20128;-87
2021/12/11 21:53:14;;;;;;;234.40;52.97;;;;;;;0.38;100.00;102074.97;10328639;28;20038;-88
2021/12/11 21:58:17;;;;;;;175.13;47.97;;;;;;;-1.37;100.00;101791.59;10321155;28;20037;-94
2021/12/11 22:03:27;;;;;;;264.93;53.57;;;;;;;-1.14;100.00;101830.66;10330717;28;20061;-92
2021/12/11 22:08:27;;;;;;;200.10;48.27;;;;;;;0.44;100.00;102164.78;10328527;28;20046;-87
2021/12/11 22:13:28;;;;;;;164.27;49.60;;;;;;;-4.60;100.00;101216.97;10311431;28;20497;-87
2021/12/11 22:18:30;;;;;;;194.00;48.87;;;;;;;-3.62;100.00;101542.88;10311340;28;20075;-88
2021/12/11 22:23:32;;;;;;;184.70;52.93;;;;;;;-3.86;100.00;101354.06;10311897;28;20034;-87
2021/12/11 22:28:32;;;;;;;191.23;49.80;;;;;;;-3.87;100.00;101320.06;10326661;28;20511;-87
2021/12/11 22:33:33;;;;;;;233.03;55.10;;;;;;;-0.71;100.00;101939.88;10291102;28;20131;-87
2021/12/11 22:38:35;;;;;;;183.47;52.17;;;;;;;-2.25;100.00;101644.56;10296909;28;20613;-87
2021/12/11 22:43:44;;;;;;;213.23;53.40;;;;;;;-2.70;100.00;101567.19;10286156;28;20034;-88
2021/12/11 22:48:45;;;;;;;204.43;54.10;;;;;;;-5.15;100.00;101223.84;10288362;28;20604;-94
2021/12/11 22:53:50;;;;;;;215.97;55.87;;;;;;;-0.75;100.00;101860.06;10288339;28;20141;-94
2021/12/11 22:58:54;;;;;;;206.57;56.27;;;;;;;-1.80;100.00;101664.41;10272999;28;20074;-94